sensor_id;sensor_type;location;lat;lon;timestamp;pressure;altitude;pressure_sealevel;temperature;humidity
71424;BME280;59240;51.370;-0.486;2023-07-29T00:04:46;100507.94;;;19.39;77.39
71424;BME280;59240;51.370;-0.486;2023-07-29T00:09:43;100515.47;;;19.45;77.26
71424;BME280;59240;51.370;-0.486;2023-07-29T00:14:40;100503.50;;;19.25;77.05
71424;BME280;59240;51.370;-0.486;2023-07-29T00:19:36;100497.47;;;19.23;76.88
71424;BME280;59240;51.370;-0.486;2023-07-29T00:24:33;100520.50;;;19.35;76.82
71424;BME280;59240;51.370;-0.486;2023-07-29T00:29:30;100514.25;;;19.36;76.27
71424;BME280;59240;51.370;-0.486;2023-07-29T00:34:27;100525.84;;;19.34;75.80
71424;BME280;59240;51.370;-0.486;2023-07-29T00:39:24;100523.22;;;19.34;75.53
71424;BME280;59240;51.370;-0.486;2023-07-29T00:44:20;100520.19;;;19.26;75.59
71424;BME280;59240;51.370;-0.486;2023-07-29T00:49:21;100518.97;;;19.31;75.32
71424;BME280;59240;51.370;-0.486;2023-07-29T00:54:18;100514.63;;;19.30;75.43
71424;BME280;59240;51.370;-0.486;2023-07-29T00:59:15;100507.00;;;19.26;75.38
71424;BME280;59240;51.370;-0.486;2023-07-29T01:04:12;100506.44;;;19.21;75.39
71424;BME280;59240;51.370;-0.486;2023-07-29T01:19:55;100498.72;;;19.18;75.66
71424;BME280;59240;51.370;-0.486;2023-07-29T01:24:55;100494.53;;;19.13;75.20
71424;BME280;59240;51.370;-0.486;2023-07-29T01:29:53;100491.75;;;18.88;75.94
71424;BME280;59240;51.370;-0.486;2023-07-29T01:34:59;100480.22;;;18.75;76.62
71424;BME280;59240;51.370;-0.486;2023-07-29T01:39:58;100487.19;;;18.76;76.49
71424;BME280;59240;51.370;-0.486;2023-07-29T01:44:57;100496.22;;;18.72;76.76
71424;BME280;59240;51.370;-0.486;2023-07-29T01:49:53;100484.31;;;18.65;76.64
71424;BME280;59240;51.370;-0.486;2023-07-29T01:54:50;100492.53;;;18.60;76.86
71424;BME280;59240;51.370;-0.486;2023-07-29T01:59:47;100503.94;;;18.61;77.14
71424;BME280;59240;51.370;-0.486;2023-07-29T02:04:44;100495.25;;;18.58;77.05
71424;BME280;59240;51.370;-0.486;2023-07-29T02:09:42;100499.88;;;18.55;77.39
71424;BME280;59240;51.370;-0.486;2023-07-29T02:14:38;100492.91;;;18.54;77.50
71424;BME280;59240;51.370;-0.486;2023-07-29T02:19:35;100502.13;;;18.47;78.00
71424;BME280;59240;51.370;-0.486;2023-07-29T02:24:32;100483.16;;;18.40;78.34
71424;BME280;59240;51.370;-0.486;2023-07-29T02:29:29;100481.25;;;18.28;78.75
71424;BME280;59240;51.370;-0.486;2023-07-29T02:34:27;100452.19;;;18.14;79.08
71424;BME280;59240;51.370;-0.486;2023-07-29T02:39:23;100477.25;;;18.21;79.34
71424;BME280;59240;51.370;-0.486;2023-07-29T02:44:21;100464.25;;;18.18;79.70
71424;BME280;59240;51.370;-0.486;2023-07-29T02:49:17;100464.09;;;18.21;79.93
71424;BME280;59240;51.370;-0.486;2023-07-29T02:54:14;100467.81;;;18.17;79.96
71424;BME280;59240;51.370;-0.486;2023-07-29T02:59:11;100464.44;;;18.15;80.39
71424;BME280;59240;51.370;-0.486;2023-07-29T03:04:08;100465.47;;;18.12;80.73
71424;BME280;59240;51.370;-0.486;2023-07-29T03:09:05;100455.78;;;18.13;80.68
71424;BME280;59240;51.370;-0.486;2023-07-29T03:14:02;100466.47;;;18.10;80.89
71424;BME280;59240;51.370;-0.486;2023-07-29T03:18:59;100468.19;;;18.11;81.20
71424;BME280;59240;51.370;-0.486;2023-07-29T03:23:56;100476.09;;;18.11;81.17
71424;BME280;59240;51.370;-0.486;2023-07-29T03:28:53;100470.81;;;18.11;81.40
71424;BME280;59240;51.370;-0.486;2023-07-29T03:33:50;100464.88;;;18.07;81.42
71424;BME280;59240;51.370;-0.486;2023-07-29T03:38:47;100463.44;;;18.01;81.69
71424;BME280;59240;51.370;-0.486;2023-07-29T03:43:44;100463.88;;;18.24;80.71
71424;BME280;59240;51.370;-0.486;2023-07-29T03:48:41;100478.31;;;18.02;81.89
71424;BME280;59240;51.370;-0.486;2023-07-29T03:53:37;100483.84;;;17.98;82.45
71424;BME280;59240;51.370;-0.486;2023-07-29T03:58:34;100477.91;;;17.94;82.35
71424;BME280;59240;51.370;-0.486;2023-07-29T04:03:33;100477.16;;;17.92;82.63
71424;BME280;59240;51.370;-0.486;2023-07-29T04:08:30;100485.06;;;17.92;82.43
71424;BME280;59240;51.370;-0.486;2023-07-29T04:13:27;100485.91;;;17.93;82.69
71424;BME280;59240;51.370;-0.486;2023-07-29T04:18:24;100471.97;;;17.91;82.76
71424;BME280;59240;51.370;-0.486;2023-07-29T04:23:21;100458.72;;;17.92;82.68
71424;BME280;59240;51.370;-0.486;2023-07-29T04:28:18;100466.78;;;17.89;82.78
71424;BME280;59240;51.370;-0.486;2023-07-29T04:33:15;100463.22;;;17.90;82.74
71424;BME280;59240;51.370;-0.486;2023-07-29T04:38:12;100474.03;;;17.86;82.92
71424;BME280;59240;51.370;-0.486;2023-07-29T04:43:09;100473.84;;;17.89;82.86
71424;BME280;59240;51.370;-0.486;2023-07-29T04:48:06;100473.19;;;17.85;83.09
71424;BME280;59240;51.370;-0.486;2023-07-29T04:53:03;100467.91;;;17.85;83.23
71424;BME280;59240;51.370;-0.486;2023-07-29T04:57:59;100469.00;;;17.81;83.17
71424;BME280;59240;51.370;-0.486;2023-07-29T05:02:57;100468.91;;;17.83;83.64
71424;BME280;59240;51.370;-0.486;2023-07-29T05:07:54;100465.28;;;17.85;83.62
71424;BME280;59240;51.370;-0.486;2023-07-29T05:12:51;100467.72;;;17.88;83.65
71424;BME280;59240;51.370;-0.486;2023-07-29T05:17:47;100467.56;;;17.91;83.69
71424;BME280;59240;51.370;-0.486;2023-07-29T05:22:44;100475.16;;;18.12;82.73
71424;BME280;59240;51.370;-0.486;2023-07-29T05:27:41;100475.53;;;18.06;82.63
71424;BME280;59240;51.370;-0.486;2023-07-29T05:32:38;100468.97;;;18.13;82.84
71424;BME280;59240;51.370;-0.486;2023-07-29T05:37:37;100478.41;;;18.01;83.70
71424;BME280;59240;51.370;-0.486;2023-07-29T05:42:35;100478.31;;;18.02;83.78
71424;BME280;59240;51.370;-0.486;2023-07-29T05:47:31;100478.22;;;18.04;83.98
71424;BME280;59240;51.370;-0.486;2023-07-29T05:52:28;100478.06;;;18.07;84.18
71424;BME280;59240;51.370;-0.486;2023-07-29T05:57:25;100486.47;;;18.14;83.99
71424;BME280;59240;51.370;-0.486;2023-07-29T06:02:22;100477.63;;;18.15;83.91
71424;BME280;59240;51.370;-0.486;2023-07-29T06:07:19;100483.66;;;18.17;83.54
71424;BME280;59240;51.370;-0.486;2023-07-29T06:12:16;100486.69;;;18.25;83.43
71424;BME280;59240;51.370;-0.486;2023-07-29T06:17:12;100468.63;;;18.33;83.75
71424;BME280;59240;51.370;-0.486;2023-07-29T06:22:09;100452.53;;;18.82;83.60
71424;BME280;59240;51.370;-0.486;2023-07-29T06:27:06;100487.75;;;19.24;82.52
71424;BME280;59240;51.370;-0.486;2023-07-29T06:32:04;100478.75;;;19.40;82.30
71424;BME280;59240;51.370;-0.486;2023-07-29T06:37:01;100484.88;;;19.70;82.08
71424;BME280;59240;51.370;-0.486;2023-07-29T06:41:57;100487.66;;;19.81;80.90
71424;BME280;59240;51.370;-0.486;2023-07-29T06:46:54;100454.88;;;19.56;80.10
71424;BME280;59240;51.370;-0.486;2023-07-29T06:51:51;100488.75;;;19.64;79.95
71424;BME280;59240;51.370;-0.486;2023-07-29T06:56:48;100498.28;;;19.52;79.95
71424;BME280;59240;51.370;-0.486;2023-07-29T07:01:45;100502.44;;;19.42;80.24
71424;BME280;59240;51.370;-0.486;2023-07-29T07:06:42;100508.31;;;19.33;80.49
71424;BME280;59240;51.370;-0.486;2023-07-29T07:11:38;100487.94;;;19.21;80.83
71424;BME280;59240;51.370;-0.486;2023-07-29T07:16:35;100490.59;;;19.06;81.06
71424;BME280;59240;51.370;-0.486;2023-07-29T07:21:34;100497.56;;;19.07;81.34
71424;BME280;59240;51.370;-0.486;2023-07-29T07:26:31;100476.28;;;18.82;81.95
71424;BME280;59240;51.370;-0.486;2023-07-29T07:31:28;100508.59;;;18.85;82.12
71424;BME280;59240;51.370;-0.486;2023-07-29T07:36:25;100488.16;;;18.75;82.89
71424;BME280;59240;51.370;-0.486;2023-07-29T07:41:22;100503.41;;;18.84;83.62
71424;BME280;59240;51.370;-0.486;2023-07-29T07:46:18;100490.03;;;18.87;83.52
71424;BME280;59240;51.370;-0.486;2023-07-29T07:51:15;100448.84;;;18.70;83.70
71424;BME280;59240;51.370;-0.486;2023-07-29T07:56:14;100454.97;;;18.85;83.38
71424;BME280;59240;51.370;-0.486;2023-07-29T08:01:11;100487.47;;;19.14;83.65
71424;BME280;59240;51.370;-0.486;2023-07-29T08:06:09;100431.75;;;19.04;83.72
71424;BME280;59240;51.370;-0.486;2023-07-29T08:11:10;100427.38;;;19.32;84.15
71424;BME280;59240;51.370;-0.486;2023-07-29T08:16:13;100463.31;;;19.76;83.69
71424;BME280;59240;51.370;-0.486;2023-07-29T08:21:15;100431.41;;;19.79;83.39
71424;BME280;59240;51.370;-0.486;2023-07-29T08:26:14;100456.91;;;20.19;83.31
71424;BME280;59240;51.370;-0.486;2023-07-29T08:31:30;100422.53;;;20.19;82.89
71424;BME280;59240;51.370;-0.486;2023-07-29T08:36:30;100429.03;;;20.66;81.89
71424;BME280;59240;51.370;-0.486;2023-07-29T08:41:32;100494.19;;;21.44;80.42
71424;BME280;59240;51.370;-0.486;2023-07-29T08:46:33;100480.09;;;21.43;79.97
71424;BME280;59240;51.370;-0.486;2023-07-29T08:51:31;100495.13;;;21.79;79.59
71424;BME280;59240;51.370;-0.486;2023-07-29T08:56:28;100497.22;;;21.87;77.70
71424;BME280;59240;51.370;-0.486;2023-07-29T09:01:27;100495.91;;;21.93;77.10
71424;BME280;59240;51.370;-0.486;2023-07-29T09:06:24;100458.09;;;22.02;75.99
71424;BME280;59240;51.370;-0.486;2023-07-29T09:11:23;100506.44;;;22.53;74.86
71424;BME280;59240;51.370;-0.486;2023-07-29T09:16:20;100499.50;;;22.39;71.54
71424;BME280;59240;51.370;-0.486;2023-07-29T09:21:22;100487.28;;;22.26;70.85
71424;BME280;59240;51.370;-0.486;2023-07-29T09:26:26;100491.72;;;22.60;70.18
71424;BME280;59240;51.370;-0.486;2023-07-29T09:31:28;100506.41;;;23.00;68.67
71424;BME280;59240;51.370;-0.486;2023-07-29T09:36:26;100496.28;;;23.27;68.36
71424;BME280;59240;51.370;-0.486;2023-07-29T09:41:25;100505.16;;;23.71;66.05
71424;BME280;59240;51.370;-0.486;2023-07-29T09:46:23;100488.38;;;24.02;63.54
71424;BME280;59240;51.370;-0.486;2023-07-29T09:51:21;100500.00;;;24.54;63.50
71424;BME280;59240;51.370;-0.486;2023-07-29T09:56:25;100493.78;;;24.96;60.52
71424;BME280;59240;51.370;-0.486;2023-07-29T10:01:26;100489.03;;;25.30;59.44
71424;BME280;59240;51.370;-0.486;2023-07-29T10:06:26;100485.28;;;25.42;57.31
71424;BME280;59240;51.370;-0.486;2023-07-29T10:11:25;100489.41;;;25.56;57.37
71424;BME280;59240;51.370;-0.486;2023-07-29T10:16:24;100480.56;;;25.55;56.89
71424;BME280;59240;51.370;-0.486;2023-07-29T10:21:22;100505.84;;;25.61;54.90
71424;BME280;59240;51.370;-0.486;2023-07-29T10:26:20;100500.06;;;25.16;54.90
71424;BME280;59240;51.370;-0.486;2023-07-29T10:31:17;100478.66;;;25.27;53.81
71424;BME280;59240;51.370;-0.486;2023-07-29T10:36:15;100475.44;;;26.02;53.53
71424;BME280;59240;51.370;-0.486;2023-07-29T10:41:12;100465.72;;;26.50;51.63
71424;BME280;59240;51.370;-0.486;2023-07-29T10:51:26;100519.53;;;26.26;49.34
71424;BME280;59240;51.370;-0.486;2023-07-29T10:56:33;100523.47;;;25.52;50.19
71424;BME280;59240;51.370;-0.486;2023-07-29T11:01:32;100511.69;;;24.63;52.01
71424;BME280;59240;51.370;-0.486;2023-07-29T11:06:29;100507.44;;;24.08;53.88
71424;BME280;59240;51.370;-0.486;2023-07-29T11:11:26;100474.72;;;23.64;54.29
71424;BME280;59240;51.370;-0.486;2023-07-29T11:16:25;100489.00;;;23.63;54.57
71424;BME280;59240;51.370;-0.486;2023-07-29T11:21:25;100491.84;;;23.82;55.26
71424;BME280;59240;51.370;-0.486;2023-07-29T11:26:22;100492.66;;;24.15;54.61
71424;BME280;59240;51.370;-0.486;2023-07-29T11:31:59;100470.28;;;24.17;51.74
71424;BME280;59240;51.370;-0.486;2023-07-29T11:37:57;100466.59;;;24.29;50.49
71424;BME280;59240;51.370;-0.486;2023-07-29T11:55:12;100490.72;;;26.19;48.94
71424;BME280;59240;51.370;-0.486;2023-07-29T12:00:11;100484.28;;;25.74;48.72
71424;BME280;59240;51.370;-0.486;2023-07-29T12:05:10;100487.38;;;25.38;47.52
71424;BME280;59240;51.370;-0.486;2023-07-29T12:10:47;100463.28;;;24.79;45.54
71424;BME280;59240;51.370;-0.486;2023-07-29T12:15:47;100526.72;;;25.16;48.05
71424;BME280;59240;51.370;-0.486;2023-07-29T12:20:59;100489.78;;;25.51;47.84
71424;BME280;59240;51.370;-0.486;2023-07-29T12:26:14;100532.06;;;26.25;47.23
71424;BME280;59240;51.370;-0.486;2023-07-29T12:32:25;100442.25;;;26.14;44.42
71424;BME280;59240;51.370;-0.486;2023-07-29T12:37:14;100483.13;;;26.34;45.59
71424;BME280;59240;51.370;-0.486;2023-07-29T12:42:11;100498.91;;;26.08;43.85
71424;BME280;59240;51.370;-0.486;2023-07-29T12:47:10;100514.19;;;26.06;43.25
71424;BME280;59240;51.370;-0.486;2023-07-29T12:52:20;100465.38;;;25.56;42.84
71424;BME280;59240;51.370;-0.486;2023-07-29T12:57:40;100466.22;;;25.56;40.99
71424;BME280;59240;51.370;-0.486;2023-07-29T13:02:41;100478.38;;;26.18;41.65
71424;BME280;59240;51.370;-0.486;2023-07-29T13:08:01;100463.06;;;26.40;40.72
71424;BME280;59240;51.370;-0.486;2023-07-29T13:12:58;100498.22;;;26.92;41.61
71424;BME280;59240;51.370;-0.486;2023-07-29T13:18:06;100482.75;;;27.05;40.07
71424;BME280;59240;51.370;-0.486;2023-07-29T13:23:03;100511.94;;;27.44;39.25
71424;BME280;59240;51.370;-0.486;2023-07-29T13:28:00;100507.25;;;27.56;38.50
71424;BME280;59240;51.370;-0.486;2023-07-29T13:32:57;100481.03;;;27.59;38.06
71424;BME280;59240;51.370;-0.486;2023-07-29T13:37:56;100495.75;;;27.91;37.37
71424;BME280;59240;51.370;-0.486;2023-07-29T13:42:54;100494.00;;;27.99;36.80
71424;BME280;59240;51.370;-0.486;2023-07-29T13:47:53;100490.50;;;28.34;36.19
71424;BME280;59240;51.370;-0.486;2023-07-29T13:52:52;100518.84;;;28.63;35.37
71424;BME280;59240;51.370;-0.486;2023-07-29T13:57:49;100523.25;;;28.28;35.18
71424;BME280;59240;51.370;-0.486;2023-07-29T14:02:46;100496.97;;;27.78;35.49
71424;BME280;59240;51.370;-0.486;2023-07-29T14:07:43;100528.97;;;27.98;36.13
71424;BME280;59240;51.370;-0.486;2023-07-29T14:12:40;100519.47;;;27.86;36.67
71424;BME280;59240;51.370;-0.486;2023-07-29T14:17:37;100533.94;;;27.65;37.35
71424;BME280;59240;51.370;-0.486;2023-07-29T14:22:34;100549.06;;;27.29;36.97
71424;BME280;59240;51.370;-0.486;2023-07-29T14:27:31;100537.13;;;26.57;38.47
71424;BME280;59240;51.370;-0.486;2023-07-29T14:32:27;100557.63;;;26.28;39.96
71424;BME280;59240;51.370;-0.486;2023-07-29T14:37:25;100558.09;;;26.42;40.69
71424;BME280;59240;51.370;-0.486;2023-07-29T14:42:22;100555.56;;;27.26;40.14
71424;BME280;59240;51.370;-0.486;2023-07-29T14:47:19;100539.22;;;27.85;38.38
71424;BME280;59240;51.370;-0.486;2023-07-29T14:52:18;100531.75;;;28.42;38.42
71424;BME280;59240;51.370;-0.486;2023-07-29T14:57:17;100549.34;;;28.62;37.57
71424;BME280;59240;51.370;-0.486;2023-07-29T15:02:13;100557.06;;;28.12;37.34
71424;BME280;59240;51.370;-0.486;2023-07-29T15:07:10;100557.09;;;27.57;37.61
71424;BME280;59240;51.370;-0.486;2023-07-29T15:12:07;100557.97;;;27.10;37.86
71424;BME280;59240;51.370;-0.486;2023-07-29T15:17:05;100565.03;;;27.11;38.68
71424;BME280;59240;51.370;-0.486;2023-07-29T15:22:02;100561.81;;;27.08;38.49
71424;BME280;59240;51.370;-0.486;2023-07-29T15:27:01;100562.28;;;26.84;38.71
71424;BME280;59240;51.370;-0.486;2023-07-29T15:31:58;100558.94;;;26.53;38.62
71424;BME280;59240;51.370;-0.486;2023-07-29T15:36:54;100574.25;;;26.41;39.07
71424;BME280;59240;51.370;-0.486;2023-07-29T15:41:51;100556.22;;;26.24;39.26
71424;BME280;59240;51.370;-0.486;2023-07-29T15:46:49;100563.56;;;26.60;38.96
71424;BME280;59240;51.370;-0.486;2023-07-29T15:51:48;100552.78;;;27.18;38.02
71424;BME280;59240;51.370;-0.486;2023-07-29T15:56:45;100546.31;;;27.11;37.60
71424;BME280;59240;51.370;-0.486;2023-07-29T16:01:42;100561.81;;;27.08;37.57
71424;BME280;59240;51.370;-0.486;2023-07-29T16:06:39;100556.09;;;27.30;38.20
71424;BME280;59240;51.370;-0.486;2023-07-29T16:11:35;100571.28;;;27.39;36.48
71424;BME280;59240;51.370;-0.486;2023-07-29T16:16:32;100566.72;;;27.12;36.48
71424;BME280;59240;51.370;-0.486;2023-07-29T16:21:29;100564.97;;;27.58;36.16
71424;BME280;59240;51.370;-0.486;2023-07-29T16:26:26;100556.78;;;27.69;35.40
71424;BME280;59240;51.370;-0.486;2023-07-29T16:31:23;100558.91;;;27.29;36.14
71424;BME280;59240;51.370;-0.486;2023-07-29T16:36:20;100567.44;;;26.95;36.42
71424;BME280;59240;51.370;-0.486;2023-07-29T16:41:18;100571.56;;;26.60;36.76
71424;BME280;59240;51.370;-0.486;2023-07-29T16:46:22;100551.56;;;26.06;36.97
71424;BME280;59240;51.370;-0.486;2023-07-29T16:51:19;100555.63;;;25.91;37.96
71424;BME280;59240;51.370;-0.486;2023-07-29T16:56:16;100568.97;;;25.91;38.16
71424;BME280;59240;51.370;-0.486;2023-07-29T17:01:13;100569.81;;;25.82;38.75
71424;BME280;59240;51.370;-0.486;2023-07-29T17:06:10;100575.84;;;25.84;39.04
71424;BME280;59240;51.370;-0.486;2023-07-29T17:11:07;100565.66;;;25.68;39.10
71424;BME280;59240;51.370;-0.486;2023-07-29T17:16:04;100575.44;;;25.48;39.03
71424;BME280;59240;51.370;-0.486;2023-07-29T17:21:01;100582.09;;;25.33;39.63
71424;BME280;59240;51.370;-0.486;2023-07-29T17:25:58;100560.63;;;25.04;39.70
71424;BME280;59240;51.370;-0.486;2023-07-29T17:30:55;100581.84;;;25.05;40.22
71424;BME280;59240;51.370;-0.486;2023-07-29T17:35:51;100578.41;;;25.03;39.73
71424;BME280;59240;51.370;-0.486;2023-07-29T17:40:48;100590.38;;;24.88;40.02
71424;BME280;59240;51.370;-0.486;2023-07-29T17:45:45;100586.34;;;24.73;39.81
71424;BME280;59240;51.370;-0.486;2023-07-29T17:50:42;100595.00;;;24.65;39.75
71424;BME280;59240;51.370;-0.486;2023-07-29T17:55:39;100591.72;;;24.62;39.97
71424;BME280;59240;51.370;-0.486;2023-07-29T18:00:36;100608.72;;;24.49;39.65
71424;BME280;59240;51.370;-0.486;2023-07-29T18:05:34;100618.97;;;24.33;40.22
71424;BME280;59240;51.370;-0.486;2023-07-29T18:10:31;100620.41;;;24.15;40.53
71424;BME280;59240;51.370;-0.486;2023-07-29T18:15:30;100632.56;;;23.96;40.93
71424;BME280;59240;51.370;-0.486;2023-07-29T18:20:27;100628.13;;;23.74;41.05
71424;BME280;59240;51.370;-0.486;2023-07-29T18:25:24;100637.38;;;23.58;41.49
71424;BME280;59240;51.370;-0.486;2023-07-29T18:30:21;100620.69;;;23.22;41.67
71424;BME280;59240;51.370;-0.486;2023-07-29T18:35:18;100654.59;;;23.07;42.07
71424;BME280;59240;51.370;-0.486;2023-07-29T18:40:15;100663.97;;;22.89;41.97
71424;BME280;59240;51.370;-0.486;2023-07-29T18:45:12;100655.31;;;22.74;42.45
71424;BME280;59240;51.370;-0.486;2023-07-29T18:50:09;100666.13;;;22.60;42.79
71424;BME280;59240;51.370;-0.486;2023-07-29T18:55:06;100668.31;;;22.42;43.27
71424;BME280;59240;51.370;-0.486;2023-07-29T19:00:03;100664.53;;;22.33;43.89
71424;BME280;59240;51.370;-0.486;2023-07-29T19:05:01;100643.56;;;22.05;44.02
71424;BME280;59240;51.370;-0.486;2023-07-29T19:09:58;100663.94;;;22.04;44.33
71424;BME280;59240;51.370;-0.486;2023-07-29T19:14:54;100665.03;;;21.89;45.01
71424;BME280;59240;51.370;-0.486;2023-07-29T19:19:51;100665.06;;;21.76;45.44
71424;BME280;59240;51.370;-0.486;2023-07-29T19:24:48;100671.66;;;21.58;45.65
71424;BME280;59240;51.370;-0.486;2023-07-29T19:29:45;100673.44;;;21.45;45.84
71424;BME280;59240;51.370;-0.486;2023-07-29T19:34:43;100661.84;;;21.20;46.41
71424;BME280;59240;51.370;-0.486;2023-07-29T19:39:43;100679.03;;;21.15;46.53
71424;BME280;59240;51.370;-0.486;2023-07-29T19:44:40;100686.00;;;21.03;46.65
71424;BME280;59240;51.370;-0.486;2023-07-29T19:49:37;100687.97;;;20.87;47.16
71424;BME280;59240;51.370;-0.486;2023-07-29T19:54:33;100701.78;;;20.77;47.10
71424;BME280;59240;51.370;-0.486;2023-07-29T19:59:30;100704.38;;;20.65;47.85
71424;BME280;59240;51.370;-0.486;2023-07-29T20:04:51;100701.06;;;20.48;47.98
71424;BME280;59240;51.370;-0.486;2023-07-29T20:09:48;100710.69;;;20.35;48.15
71424;BME280;59240;51.370;-0.486;2023-07-29T20:14:45;100708.75;;;20.25;48.38
71424;BME280;59240;51.370;-0.486;2023-07-29T20:19:41;100717.34;;;20.14;48.63
71424;BME280;59240;51.370;-0.486;2023-07-29T20:24:38;100708.94;;;19.93;49.14
71424;BME280;59240;51.370;-0.486;2023-07-29T20:29:35;100733.97;;;20.02;49.24
71424;BME280;59240;51.370;-0.486;2023-07-29T20:34:32;100735.03;;;19.99;49.67
71424;BME280;59240;51.370;-0.486;2023-07-29T20:39:29;100745.38;;;20.02;49.95
71424;BME280;59240;51.370;-0.486;2023-07-29T20:44:27;100749.38;;;19.95;49.89
71424;BME280;59240;51.370;-0.486;2023-07-29T20:49:24;100759.28;;;19.91;50.44
71424;BME280;59240;51.370;-0.486;2023-07-29T20:54:21;100753.69;;;19.82;50.81
71424;BME280;59240;51.370;-0.486;2023-07-29T20:59:18;100737.56;;;19.72;50.94
71424;BME280;59240;51.370;-0.486;2023-07-29T21:04:14;100747.75;;;19.64;51.46
71424;BME280;59240;51.370;-0.486;2023-07-29T21:09:12;100755.31;;;19.54;51.42
71424;BME280;59240;51.370;-0.486;2023-07-29T21:14:09;100757.19;;;19.38;51.69
71424;BME280;59240;51.370;-0.486;2023-07-29T21:19:06;100742.75;;;19.13;52.10
71424;BME280;59240;51.370;-0.486;2023-07-29T21:24:03;100771.56;;;19.18;52.46
71424;BME280;59240;51.370;-0.486;2023-07-29T21:29:00;100775.75;;;19.06;52.98
71424;BME280;59240;51.370;-0.486;2023-07-29T21:33:57;100774.91;;;19.06;53.22
71424;BME280;59240;51.370;-0.486;2023-07-29T21:38:54;100770.66;;;19.03;53.33
71424;BME280;59240;51.370;-0.486;2023-07-29T21:43:53;100778.47;;;19.05;53.67
71424;BME280;59240;51.370;-0.486;2023-07-29T21:48:50;100781.22;;;19.03;53.87
71424;BME280;59240;51.370;-0.486;2023-07-29T21:53:47;100777.88;;;19.00;54.22
71424;BME280;59240;51.370;-0.486;2023-07-29T21:58:43;100789.66;;;18.94;54.54
71424;BME280;59240;51.370;-0.486;2023-07-29T22:03:40;100786.09;;;18.95;54.82
71424;BME280;59240;51.370;-0.486;2023-07-29T22:08:37;100785.63;;;18.87;54.94
71424;BME280;59240;51.370;-0.486;2023-07-29T22:13:34;100793.16;;;18.79;55.32
71424;BME280;59240;51.370;-0.486;2023-07-29T22:18:31;100777.09;;;18.50;55.50
71424;BME280;59240;51.370;-0.486;2023-07-29T22:23:28;100807.84;;;18.51;55.79
71424;BME280;59240;51.370;-0.486;2023-07-29T22:28:26;100807.50;;;18.42;55.87
71424;BME280;59240;51.370;-0.486;2023-07-29T22:33:22;100809.75;;;18.32;55.87
71424;BME280;59240;51.370;-0.486;2023-07-29T22:38:19;100806.34;;;18.14;55.97
71424;BME280;59240;51.370;-0.486;2023-07-29T22:43:16;100805.19;;;18.02;56.18
71424;BME280;59240;51.370;-0.486;2023-07-29T22:48:13;100818.22;;;18.06;56.25
71424;BME280;59240;51.370;-0.486;2023-07-29T22:53:10;100830.06;;;17.97;56.16
71424;BME280;59240;51.370;-0.486;2023-07-29T22:58:07;100833.09;;;17.89;56.38
71424;BME280;59240;51.370;-0.486;2023-07-29T23:03:04;100841.50;;;17.80;56.95
71424;BME280;59240;51.370;-0.486;2023-07-29T23:08:01;100841.03;;;17.72;56.98
71424;BME280;59240;51.370;-0.486;2023-07-29T23:13:00;100847.25;;;17.69;57.44
71424;BME280;59240;51.370;-0.486;2023-07-29T23:17:57;100848.28;;;17.67;57.58
71424;BME280;59240;51.370;-0.486;2023-07-29T23:22:54;100821.78;;;17.53;57.78
71424;BME280;59240;51.370;-0.486;2023-07-29T23:27:51;100844.09;;;17.63;57.76
71424;BME280;59240;51.370;-0.486;2023-07-29T23:32:48;100841.63;;;17.60;57.94
71424;BME280;59240;51.370;-0.486;2023-07-29T23:37:45;100845.94;;;17.61;58.53
71424;BME280;59240;51.370;-0.486;2023-07-29T23:42:46;100841.63;;;17.60;58.54
71424;BME280;59240;51.370;-0.486;2023-07-29T23:47:42;100846.72;;;17.63;58.91
71424;BME280;59240;51.370;-0.486;2023-07-29T23:52:39;100845.66;;;17.67;59.12
71424;BME280;59240;51.370;-0.486;2023-07-29T23:57:36;100840.38;;;17.67;59.55
